createdAt,value
2018-06-11T00:00:43.416Z,12.20
2018-06-11T00:01:43.373Z,12.00
2018-06-11T00:02:43.301Z,12.10
2018-06-11T00:03:43.242Z,12.10
2018-06-11T00:04:43.182Z,11.60
2018-06-11T00:05:43.123Z,11.70
2018-06-11T00:06:43.078Z,12.10
2018-06-11T00:07:43.008Z,11.60
2018-06-11T00:08:42.945Z,11.80
2018-06-11T00:09:42.890Z,12.60
2018-06-11T00:10:42.823Z,11.80
2018-06-11T00:11:42.775Z,12.00
2018-06-11T00:12:42.707Z,12.20
2018-06-11T00:13:42.647Z,11.60
2018-06-11T00:14:42.589Z,11.70
2018-06-11T00:15:42.531Z,11.60
2018-06-11T00:16:42.471Z,12.20
2018-06-11T00:17:42.411Z,11.80
2018-06-11T00:18:42.352Z,11.50
2018-06-11T00:19:42.292Z,11.90
2018-06-11T00:20:42.245Z,12.10
2018-06-11T00:21:42.173Z,12.80
2018-06-11T00:22:42.115Z,12.40
2018-06-11T00:23:42.057Z,11.80
2018-06-11T00:24:41.999Z,12.20
2018-06-11T00:25:41.937Z,12.70
2018-06-11T00:26:41.880Z,12.10
2018-06-11T00:27:41.821Z,12.10
2018-06-11T00:28:41.761Z,12.50
2018-06-11T00:29:41.700Z,12.50
2018-06-11T00:30:41.641Z,12.80
2018-06-11T00:31:41.581Z,12.40
2018-06-11T00:32:41.523Z,12.00
2018-06-11T00:33:41.462Z,11.90
2018-06-11T00:34:41.402Z,11.40
2018-06-11T00:35:41.348Z,12.50
2018-06-11T00:36:41.285Z,12.50
2018-06-11T00:37:41.224Z,12.40
2018-06-11T00:38:41.167Z,12.20
2018-06-11T00:39:41.107Z,12.20
2018-06-11T00:40:41.052Z,11.70
2018-06-11T00:41:40.989Z,11.30
2018-06-11T00:42:40.928Z,12.40
2018-06-11T00:43:40.868Z,12.20
2018-06-11T00:44:40.810Z,12.80
2018-06-11T00:45:40.748Z,12.10
2018-06-11T00:46:40.691Z,11.90
2018-06-11T00:47:40.632Z,13.10
2018-06-11T00:48:40.574Z,12.10
2018-06-11T00:49:40.512Z,12.20
2018-06-11T00:50:40.452Z,12.90
2018-06-11T00:51:40.395Z,12.90
2018-06-11T00:52:40.332Z,12.10
2018-06-11T00:53:40.275Z,11.50
2018-06-11T00:54:40.229Z,12.30
2018-06-11T00:55:40.158Z,12.50
2018-06-11T00:56:40.098Z,11.20
2018-06-11T00:57:40.038Z,11.60
2018-06-11T00:58:39.981Z,11.90
2018-06-11T00:59:39.919Z,11.70
2018-06-11T01:00:39.860Z,11.80
2018-06-11T01:01:39.803Z,11.50
2018-06-11T01:02:39.741Z,13.20
2018-06-11T01:03:39.683Z,11.50
2018-06-11T01:04:39.623Z,11.70
2018-06-11T01:05:39.564Z,10.60
2018-06-11T01:06:39.503Z,11.10
2018-06-11T01:07:39.444Z,10.90
2018-06-11T01:08:39.388Z,11.30
2018-06-11T01:09:39.329Z,11.30
2018-06-11T01:10:39.266Z,11.70
2018-06-11T01:11:39.207Z,12.00
2018-06-11T01:12:39.148Z,10.60
2018-06-11T01:13:39.088Z,11.20
2018-06-11T01:14:39.028Z,11.70
2018-06-11T01:15:38.972Z,11.70
2018-06-11T01:16:38.909Z,11.00
2018-06-11T01:17:38.852Z,11.60
2018-06-11T01:18:38.791Z,11.90
2018-06-11T01:19:38.730Z,11.70
2018-06-11T01:20:38.671Z,11.70
2018-06-11T01:21:38.612Z,11.80
2018-06-11T01:22:38.559Z,11.20
2018-06-11T01:23:38.495Z,11.00
2018-06-11T01:24:38.549Z,11.50
2018-06-11T01:25:38.375Z,11.80
2018-06-11T01:26:38.315Z,11.80
2018-06-11T01:27:38.252Z,11.70
2018-06-11T01:28:38.200Z,11.50
2018-06-11T01:29:38.141Z,11.90
2018-06-11T01:30:38.104Z,12.20
2018-06-11T01:31:38.047Z,12.20
2018-06-11T01:32:37.958Z,12.30
2018-06-11T01:33:37.898Z,11.40
2018-06-11T01:34:37.840Z,12.60
2018-06-11T01:35:37.780Z,12.20
2018-06-11T01:36:37.721Z,13.10
2018-06-11T01:37:37.660Z,13.10
2018-06-11T01:38:37.601Z,12.50
2018-06-11T01:39:37.543Z,12.50
2018-06-11T01:40:37.483Z,12.70
2018-06-11T01:41:37.423Z,11.90
2018-06-11T01:42:37.364Z,11.80
2018-06-11T01:43:37.306Z,11.80
2018-06-11T01:44:37.259Z,13.20
2018-06-11T01:45:37.182Z,11.60
2018-06-11T01:46:37.146Z,11.70
2018-06-11T01:47:37.067Z,12.00
2018-06-11T01:48:37.010Z,12.70
2018-06-11T01:49:36.945Z,12.30
2018-06-11T01:50:36.887Z,12.40
2018-06-11T01:51:36.829Z,12.40
2018-06-11T01:52:36.769Z,13.30
2018-06-11T01:53:36.709Z,12.40
2018-06-11T01:54:36.651Z,13.20
2018-06-11T01:55:36.589Z,13.10
2018-06-11T01:56:36.532Z,12.70
2018-06-11T01:57:36.470Z,12.80
2018-06-11T01:58:36.414Z,13.30
2018-06-11T01:59:36.352Z,12.70
2018-06-11T02:00:36.292Z,12.70
2018-06-11T02:01:36.232Z,12.50
2018-06-11T02:02:36.171Z,12.80
2018-06-11T02:03:36.115Z,13.10
2018-06-11T02:04:36.054Z,12.90
2018-06-11T02:05:35.995Z,12.20
2018-06-11T02:06:35.939Z,13.20
2018-06-11T02:07:35.876Z,12.80
2018-06-11T02:08:35.814Z,13.60
2018-06-11T02:09:35.758Z,13.20
2018-06-11T02:10:35.694Z,12.70
2018-06-11T02:11:35.636Z,12.60
2018-06-11T02:12:35.575Z,12.90
2018-06-11T02:13:35.517Z,13.00
2018-06-11T02:14:35.457Z,13.10
2018-06-11T02:15:35.397Z,13.10
2018-06-11T02:16:35.338Z,13.10
2018-06-11T02:17:35.276Z,12.20
2018-06-11T02:18:35.219Z,13.20
2018-06-11T02:19:35.157Z,13.00
2018-06-11T02:20:35.098Z,12.90
2018-06-11T02:21:35.039Z,12.30
2018-06-11T02:22:34.981Z,12.50
2018-06-11T02:23:34.920Z,13.00
2018-06-11T02:24:34.860Z,13.00
2018-06-11T02:25:34.802Z,12.10
2018-06-11T02:26:34.741Z,13.10
2018-06-11T02:27:34.681Z,12.70
2018-06-11T02:28:34.622Z,13.00
2018-06-11T02:29:34.557Z,12.90
2018-06-11T02:30:34.503Z,13.30
2018-06-11T02:31:34.442Z,12.80
2018-06-11T02:32:34.383Z,12.60
2018-06-11T02:33:34.323Z,13.30
2018-06-11T02:34:34.263Z,12.50
2018-06-11T02:35:34.203Z,13.70
2018-06-11T02:36:34.145Z,13.00
2018-06-11T02:37:34.083Z,13.60
2018-06-11T02:38:34.022Z,13.50
2018-06-11T02:39:33.962Z,12.90
2018-06-11T02:40:33.904Z,13.20
2018-06-11T02:41:33.849Z,13.70
2018-06-11T02:42:33.783Z,14.00
2018-06-11T02:43:33.723Z,14.40
2018-06-11T02:44:33.665Z,14.30
2018-06-11T02:45:33.605Z,13.60
2018-06-11T02:46:33.546Z,14.10
2018-06-11T02:47:33.485Z,14.00
2018-06-11T02:48:33.426Z,13.50
2018-06-11T02:49:33.365Z,14.60
2018-06-11T02:50:33.307Z,14.00
2018-06-11T02:51:33.247Z,14.80
2018-06-11T02:52:33.186Z,14.10
2018-06-11T02:53:33.127Z,14.70
2018-06-11T02:54:33.068Z,15.40
2018-06-11T02:55:33.009Z,14.80
2018-06-11T02:56:32.950Z,15.20
2018-06-11T02:57:32.887Z,14.40
2018-06-11T02:58:32.829Z,14.30
2018-06-11T02:59:32.768Z,14.60
2018-06-11T03:00:32.708Z,14.40
2018-06-11T03:01:32.647Z,15.20
2018-06-11T03:02:32.588Z,13.90
2018-06-11T03:03:32.530Z,14.50
2018-06-11T03:04:32.470Z,15.30
2018-06-11T03:05:32.407Z,15.90
2018-06-11T03:06:32.350Z,16.70
2018-06-11T03:07:32.289Z,16.10
2018-06-11T03:08:32.230Z,15.20
2018-06-11T03:09:32.168Z,15.50
2018-06-11T03:10:32.111Z,15.90
2018-06-11T03:11:32.050Z,16.10
2018-06-11T03:12:31.991Z,16.10
2018-06-11T03:13:31.930Z,16.10
2018-06-11T03:14:31.871Z,16.90
2018-06-11T03:15:31.864Z,16.60
2018-06-11T03:16:31.753Z,16.20
2018-06-11T03:17:31.690Z,18.30
2018-06-11T03:18:31.630Z,18.50
2018-06-11T03:19:31.573Z,19.40
2018-06-11T03:20:31.512Z,19.60
2018-06-11T03:21:31.454Z,19.10
2018-06-11T03:22:31.391Z,18.20
2018-06-11T03:23:31.331Z,21.10
2018-06-11T03:24:31.274Z,18.80
2018-06-11T03:25:31.210Z,19.60
2018-06-11T03:26:31.150Z,19.60
2018-06-11T03:27:31.092Z,19.40
2018-06-11T03:28:31.033Z,20.00
2018-06-11T03:29:30.971Z,18.90
2018-06-11T03:30:30.914Z,20.40
2018-06-11T03:31:30.853Z,20.50
2018-06-11T03:32:30.794Z,20.20
2018-06-11T03:33:30.734Z,20.30
2018-06-11T03:34:30.674Z,19.50
2018-06-11T03:35:30.614Z,20.30
2018-06-11T03:36:30.558Z,19.00
2018-06-11T03:37:30.498Z,17.70
2018-06-11T03:38:30.434Z,19.20
2018-06-11T03:39:30.377Z,19.00
2018-06-11T03:40:30.315Z,18.90
2018-06-11T03:41:30.254Z,18.80
2018-06-11T03:42:30.195Z,18.40
2018-06-11T03:43:30.136Z,20.10
2018-06-11T03:44:30.077Z,18.70
2018-06-11T03:45:30.017Z,17.50
2018-06-11T03:46:29.954Z,18.60
2018-06-11T03:47:29.907Z,18.30
2018-06-11T03:48:29.839Z,19.00
2018-06-11T03:49:29.776Z,18.20
2018-06-11T03:50:29.721Z,18.40
2018-06-11T03:51:29.656Z,18.40
2018-06-11T03:52:29.596Z,18.30
2018-06-11T03:53:29.536Z,17.70
2018-06-11T03:54:29.479Z,18.50
2018-06-11T03:55:29.417Z,17.80
2018-06-11T03:56:29.358Z,17.10
2018-06-11T03:57:29.297Z,17.30
2018-06-11T03:58:29.239Z,17.20
2018-06-11T03:59:29.180Z,16.30
2018-06-11T04:00:29.131Z,17.60
2018-06-11T04:01:29.060Z,16.50
2018-06-11T04:02:29.000Z,16.70
2018-06-11T04:03:28.940Z,15.90
2018-06-11T04:04:28.880Z,16.50
2018-06-11T04:05:28.821Z,15.80
2018-06-11T04:06:28.760Z,16.70
2018-06-11T04:07:28.701Z,15.80
2018-06-11T04:08:28.642Z,15.90
2018-06-11T04:09:28.580Z,15.70
2018-06-11T04:10:28.522Z,16.60
2018-06-11T04:11:28.463Z,15.80
2018-06-11T04:12:28.399Z,15.80
2018-06-11T04:13:28.343Z,15.90
2018-06-11T04:14:28.285Z,16.30
2018-06-11T04:15:28.223Z,15.70
2018-06-11T04:16:28.164Z,15.20
2018-06-11T04:17:28.103Z,15.00
2018-06-11T04:18:28.045Z,14.70
2018-06-11T04:19:28.039Z,14.80
2018-06-11T04:20:27.926Z,15.10
2018-06-11T04:21:27.865Z,15.20
2018-06-11T04:22:27.806Z,15.30
2018-06-11T04:23:27.749Z,15.00
2018-06-11T04:24:27.686Z,15.60
2018-06-11T04:25:27.627Z,16.10
2018-06-11T04:26:27.566Z,15.50
2018-06-11T04:27:27.507Z,13.90
2018-06-11T04:28:27.449Z,14.90
2018-06-11T04:29:27.390Z,15.00
2018-06-11T04:30:27.328Z,14.10
2018-06-11T04:31:27.269Z,14.70
2018-06-11T04:32:27.211Z,13.80
2018-06-11T04:33:27.149Z,16.40
2018-06-11T04:34:27.094Z,14.30
2018-06-11T04:35:27.032Z,15.10
2018-06-11T04:36:26.972Z,15.40
2018-06-11T04:37:26.911Z,14.30
2018-06-11T04:38:26.853Z,15.20
2018-06-11T04:39:26.793Z,13.20
2018-06-11T04:40:26.735Z,14.10
2018-06-11T04:41:26.674Z,14.20
2018-06-11T04:42:26.616Z,15.20
2018-06-11T04:43:26.556Z,13.80
2018-06-11T04:44:26.497Z,14.70
2018-06-11T04:45:26.432Z,14.00
2018-06-11T04:46:26.377Z,14.20
2018-06-11T04:47:26.318Z,16.60
2018-06-11T04:48:26.259Z,14.30
2018-06-11T04:49:26.199Z,13.80
2018-06-11T04:50:26.140Z,13.20
2018-06-11T04:51:26.080Z,14.80
2018-06-11T04:52:26.020Z,13.90
2018-06-11T04:53:25.961Z,14.70
2018-06-11T04:54:25.901Z,13.90
2018-06-11T04:55:25.843Z,13.80
2018-06-11T04:56:25.784Z,13.90
2018-06-11T04:57:25.723Z,13.30
2018-06-11T04:58:25.665Z,13.70
2018-06-11T04:59:25.607Z,13.80
2018-06-11T05:00:25.546Z,12.10
2018-06-11T05:01:25.493Z,13.70
2018-06-11T05:02:25.428Z,13.30
2018-06-11T05:03:25.368Z,13.70
2018-06-11T05:04:25.310Z,11.90
2018-06-11T05:05:25.254Z,13.00
2018-06-11T05:06:25.191Z,12.20
2018-06-11T05:07:25.133Z,12.60
2018-06-11T05:08:25.077Z,12.40
2018-06-11T05:09:25.016Z,12.80
2018-06-11T05:10:24.954Z,12.30
2018-06-11T05:11:24.897Z,15.00
2018-06-11T05:12:24.835Z,12.90
2018-06-11T05:13:24.775Z,12.60
2018-06-11T05:14:24.719Z,12.40
2018-06-11T05:15:24.659Z,12.30
2018-06-11T05:16:24.600Z,12.10
2018-06-11T05:17:24.548Z,13.10
2018-06-11T05:18:24.481Z,14.40
2018-06-11T05:19:24.424Z,15.10
2018-06-11T05:20:24.363Z,13.60
2018-06-11T05:21:24.304Z,14.70
2018-06-11T05:22:24.250Z,12.70
2018-06-11T05:23:24.209Z,15.50
2018-06-11T05:24:24.127Z,13.40
2018-06-11T05:25:24.068Z,12.30
2018-06-11T05:26:24.010Z,14.70
2018-06-11T05:27:23.952Z,16.20
2018-06-11T05:28:23.893Z,15.60
2018-06-11T05:29:23.832Z,12.80
2018-06-11T05:30:23.779Z,17.20
2018-06-11T05:31:23.719Z,16.80
2018-06-11T05:32:23.659Z,14.30
2018-06-11T05:33:23.600Z,14.50
2018-06-11T05:34:23.561Z,16.70
2018-06-11T05:35:23.483Z,13.40
2018-06-11T05:36:23.422Z,13.20
2018-06-11T05:37:23.364Z,13.20
2018-06-11T05:38:23.305Z,12.30
2018-06-11T05:39:23.249Z,13.10
2018-06-11T05:40:23.284Z,13.20
2018-06-11T05:41:23.131Z,14.10
2018-06-11T05:42:23.073Z,12.60
2018-06-11T05:43:23.013Z,13.00
2018-06-11T05:44:22.957Z,18.30
2018-06-11T05:45:22.896Z,13.60
2018-06-11T05:46:22.837Z,14.00
2018-06-11T05:47:22.780Z,13.80
2018-06-11T05:48:22.724Z,16.10
2018-06-11T05:49:22.662Z,13.90
2018-06-11T05:50:22.604Z,13.30
2018-06-11T05:51:22.558Z,13.90
2018-06-11T05:52:22.488Z,13.90
2018-06-11T05:53:22.461Z,16.50
2018-06-11T05:54:22.373Z,14.10
2018-06-11T05:55:22.313Z,14.30
2018-06-11T05:56:22.255Z,14.90
2018-06-11T05:57:22.197Z,14.00
2018-06-11T05:58:22.138Z,14.00
2018-06-11T05:59:22.079Z,14.80
2018-06-11T06:00:22.020Z,13.10
2018-06-11T06:01:21.963Z,13.70
2018-06-11T06:02:21.905Z,16.10
2018-06-11T06:03:21.847Z,14.30
2018-06-11T06:04:21.789Z,13.90
2018-06-11T06:05:21.729Z,13.10
2018-06-11T06:06:21.675Z,13.70
2018-06-11T06:07:21.615Z,12.30
2018-06-11T06:08:21.557Z,12.70
2018-06-11T06:09:21.499Z,12.50
2018-06-11T06:10:21.439Z,13.80
2018-06-11T06:11:21.382Z,13.10
2018-06-11T06:12:21.326Z,12.50
2018-06-11T06:13:21.268Z,13.00
2018-06-11T06:14:21.208Z,13.70
2018-06-11T06:15:21.150Z,12.50
2018-06-11T06:16:21.093Z,12.40
2018-06-11T06:17:21.035Z,12.30
2018-06-11T06:18:20.976Z,14.20
2018-06-11T06:19:20.920Z,12.80
2018-06-11T06:20:20.861Z,15.70
2018-06-11T06:21:20.803Z,14.00
2018-06-11T06:22:20.747Z,12.50
2018-06-11T06:23:20.688Z,12.90
2018-06-11T06:24:20.632Z,12.50
2018-06-11T06:25:20.574Z,14.30
2018-06-11T06:26:20.513Z,12.10
2018-06-11T06:27:20.456Z,13.20
2018-06-11T06:28:20.399Z,14.70
2018-06-11T06:29:20.343Z,12.10
2018-06-11T06:30:20.282Z,13.20
2018-06-11T06:31:20.226Z,11.50
2018-06-11T06:32:20.168Z,12.40
2018-06-11T06:33:20.111Z,9.40
2018-06-11T06:34:20.134Z,8.50
2018-06-11T06:35:19.997Z,11.20
2018-06-11T06:36:19.938Z,9.20
2018-06-11T06:37:19.879Z,11.00
2018-06-11T06:38:19.824Z,10.60
2018-06-11T06:39:19.771Z,10.70
2018-06-11T06:40:19.708Z,10.40
2018-06-11T06:41:19.653Z,9.90
2018-06-11T06:42:19.595Z,7.80
2018-06-11T06:43:19.537Z,7.70
2018-06-11T06:44:19.483Z,8.90
2018-06-11T06:45:19.423Z,7.90
2018-06-11T06:46:19.364Z,8.00
2018-06-11T06:47:19.311Z,10.40
2018-06-11T06:48:19.251Z,12.40
2018-06-11T06:49:19.195Z,15.20
2018-06-11T06:50:19.137Z,12.50
2018-06-11T06:51:19.080Z,10.40
2018-06-11T06:52:19.021Z,11.90
2018-06-11T06:53:18.964Z,8.40
2018-06-11T06:54:18.906Z,7.90
2018-06-11T06:55:18.850Z,10.60
2018-06-11T06:56:18.792Z,8.20
2018-06-11T06:57:18.735Z,9.00
2018-06-11T06:58:18.678Z,10.70
2018-06-11T06:59:18.622Z,10.20
2018-06-11T07:00:18.564Z,7.70
2018-06-11T07:01:18.507Z,12.00
2018-06-11T07:02:18.451Z,9.30
2018-06-11T07:03:18.394Z,10.10
2018-06-11T07:04:18.337Z,13.00
2018-06-11T07:05:18.281Z,9.80
2018-06-11T07:06:18.224Z,9.00
2018-06-11T07:07:18.167Z,9.10
2018-06-11T07:08:18.110Z,10.20
2018-06-11T07:09:18.054Z,9.30
2018-06-11T07:10:17.999Z,8.80
2018-06-11T07:11:17.941Z,9.10
2018-06-11T07:12:17.883Z,7.60
2018-06-11T07:13:17.832Z,7.30
2018-06-11T07:14:17.770Z,7.50
2018-06-11T07:15:17.717Z,9.90
2018-06-11T07:16:17.658Z,9.00
2018-06-11T07:17:17.604Z,8.50
2018-06-11T07:18:17.547Z,7.50
2018-06-11T07:19:17.488Z,7.10
2018-06-11T07:20:17.475Z,10.00
2018-06-11T07:21:17.380Z,8.80
2018-06-11T07:22:17.321Z,10.50
2018-06-11T07:23:17.261Z,9.40
2018-06-11T07:24:17.210Z,10.10
2018-06-11T07:25:17.148Z,8.40
2018-06-11T07:26:17.093Z,8.60
2018-06-11T07:27:17.037Z,7.70
2018-06-11T07:28:16.983Z,9.40
2018-06-11T07:29:16.926Z,9.20
2018-06-11T07:30:16.869Z,7.70
2018-06-11T07:31:16.827Z,6.90
2018-06-11T07:32:16.754Z,7.50
2018-06-11T07:33:16.699Z,6.70
2018-06-11T07:34:16.642Z,6.40
2018-06-11T07:35:16.590Z,7.70
2018-06-11T07:36:16.530Z,6.40
2018-06-11T07:37:16.474Z,6.70
2018-06-11T07:38:16.421Z,6.70
2018-06-11T07:39:16.361Z,8.10
2018-06-11T07:40:16.306Z,6.80
2018-06-11T07:41:16.248Z,9.10
2018-06-11T07:42:16.194Z,10.90
2018-06-11T07:43:16.136Z,12.10
2018-06-11T07:44:16.081Z,12.40
2018-06-11T07:45:16.026Z,8.40
2018-06-11T07:46:15.970Z,7.40
2018-06-11T07:47:15.913Z,7.40
2018-06-11T07:48:15.859Z,7.30
2018-06-11T07:49:15.800Z,7.30
2018-06-11T07:50:15.745Z,6.90
2018-06-11T07:51:15.690Z,7.50
2018-06-11T07:52:15.634Z,6.60
2018-06-11T07:53:15.577Z,8.80
2018-06-11T07:54:15.523Z,8.80
2018-06-11T07:55:15.466Z,9.00
2018-06-11T07:56:15.412Z,8.60
2018-06-11T07:57:15.356Z,6.00
2018-06-11T07:58:15.301Z,6.80
2018-06-11T07:59:15.244Z,16.00
2018-06-11T08:00:15.191Z,13.10
2018-06-11T08:01:15.148Z,8.10
2018-06-11T08:02:15.078Z,7.00
2018-06-11T08:03:15.017Z,8.80
2018-06-11T08:04:14.965Z,6.40
2018-06-11T08:05:14.909Z,8.60
2018-06-11T08:06:14.855Z,8.00
2018-06-11T08:07:14.800Z,8.10
2018-06-11T08:08:14.748Z,7.40
2018-06-11T08:09:14.688Z,7.60
2018-06-11T08:10:14.638Z,7.70
2018-06-11T08:11:14.577Z,7.10
2018-06-11T08:12:14.521Z,7.90
2018-06-11T08:13:14.466Z,8.70
2018-06-11T08:14:14.410Z,20.60
2018-06-11T08:15:14.355Z,30.00
2018-06-11T08:16:14.300Z,23.40
2018-06-11T08:17:14.245Z,11.30
2018-06-11T08:18:14.190Z,8.40
2018-06-11T08:19:14.145Z,11.00
2018-06-11T08:20:14.080Z,13.40
2018-06-11T08:21:14.026Z,12.20
2018-06-11T08:22:13.970Z,14.60
2018-06-11T08:23:13.914Z,9.40
2018-06-11T08:24:13.859Z,9.40
2018-06-11T08:25:13.803Z,10.60
2018-06-11T08:26:13.749Z,12.60
2018-06-11T08:27:13.693Z,9.70
2018-06-11T08:28:13.641Z,10.40
2018-06-11T08:29:13.585Z,12.40
2018-06-11T08:30:13.531Z,11.20
2018-06-11T08:31:13.475Z,9.40
2018-06-11T08:32:13.420Z,6.70
2018-06-11T08:33:13.365Z,11.60
2018-06-11T08:34:13.309Z,5.40
2018-06-11T08:35:13.256Z,4.90
2018-06-11T08:36:13.201Z,6.90
2018-06-11T08:37:13.146Z,10.90
2018-06-11T08:38:13.093Z,11.60
2018-06-11T08:39:13.038Z,10.70
2018-06-11T08:40:12.983Z,11.20
2018-06-11T08:41:12.928Z,16.20
2018-06-11T08:42:12.875Z,10.50
2018-06-11T08:43:12.854Z,10.20
2018-06-11T08:44:12.770Z,13.20
2018-06-11T08:45:12.710Z,11.90
2018-06-11T08:46:12.657Z,9.40
2018-06-11T08:47:12.626Z,11.20
2018-06-11T08:48:12.549Z,10.40
2018-06-11T08:49:12.491Z,10.50
2018-06-11T08:50:12.482Z,7.70
2018-06-11T08:51:12.384Z,9.10
2018-06-11T08:52:12.329Z,13.80
2018-06-11T08:53:12.275Z,20.70
2018-06-11T08:54:12.218Z,16.60
2018-06-11T08:55:12.164Z,40.50
2018-06-11T08:56:12.111Z,12.30
2018-06-11T08:57:12.060Z,22.60
2018-06-11T08:58:12.000Z,23.90
2018-06-11T08:59:11.948Z,27.60
2018-06-11T09:00:11.896Z,14.70
2018-06-11T09:01:11.839Z,14.10
2018-06-11T09:02:11.784Z,14.40
2018-06-11T09:03:11.735Z,12.80
2018-06-11T09:04:11.677Z,16.90
2018-06-11T09:05:11.632Z,12.90
2018-06-11T09:06:11.572Z,16.10
2018-06-11T09:07:11.518Z,13.10
2018-06-11T09:08:11.458Z,10.50
2018-06-11T09:09:11.406Z,18.80
2018-06-11T09:10:11.349Z,14.00
2018-06-11T09:11:11.300Z,14.30
2018-06-11T09:12:11.249Z,14.10
2018-06-11T09:13:11.192Z,8.70
2018-06-11T09:14:11.139Z,8.20
2018-06-11T09:15:11.092Z,10.00
2018-06-11T09:16:11.033Z,15.60
2018-06-11T09:17:10.977Z,13.80
2018-06-11T09:18:11.008Z,11.70
2018-06-11T09:19:10.876Z,13.00
2018-06-11T09:20:10.821Z,13.60
2018-06-11T09:21:10.769Z,11.00
2018-06-11T09:22:10.716Z,13.00
2018-06-11T09:23:10.666Z,12.20
2018-06-11T09:24:10.610Z,24.10
2018-06-11T09:25:10.568Z,13.40
2018-06-11T09:26:10.509Z,10.60
2018-06-11T09:27:10.458Z,9.20
2018-06-11T09:28:10.434Z,10.80
2018-06-11T09:29:10.354Z,10.50
2018-06-11T09:30:10.302Z,16.90
2018-06-11T09:31:10.252Z,14.50
2018-06-11T09:32:10.202Z,27.50
2018-06-11T09:33:10.151Z,25.90
2018-06-11T09:34:10.101Z,17.10
2018-06-11T09:35:10.090Z,15.50
2018-06-11T09:36:10.001Z,12.70
2018-06-11T09:37:09.951Z,13.40
2018-06-11T09:38:09.904Z,10.00
2018-06-11T09:39:09.847Z,13.30
2018-06-11T09:40:09.860Z,11.10
2018-06-11T09:41:09.750Z,9.90
2018-06-11T09:42:09.701Z,15.30
2018-06-11T09:43:09.651Z,12.70
2018-06-11T09:44:09.664Z,13.90
2018-06-11T09:45:09.552Z,14.60
2018-06-11T09:46:09.502Z,16.10
2018-06-11T09:47:09.452Z,14.70
2018-06-11T09:48:09.405Z,9.20
2018-06-11T09:49:09.413Z,17.20
2018-06-11T09:50:09.316Z,31.40
2018-06-11T09:51:09.261Z,11.40
2018-06-11T09:52:09.209Z,12.60
2018-06-11T09:53:09.160Z,31.00
2018-06-11T09:54:09.113Z,9.70
2018-06-11T09:55:09.064Z,11.80
2018-06-11T09:56:09.018Z,11.90
2018-06-11T09:57:08.968Z,15.90
2018-06-11T09:58:08.921Z,13.60
2018-06-11T09:59:08.874Z,8.50
2018-06-11T10:00:08.824Z,11.50
2018-06-11T10:01:08.775Z,9.60
2018-06-11T10:02:08.728Z,10.00
2018-06-11T10:03:08.688Z,9.20
2018-06-11T10:04:08.632Z,8.90
2018-06-11T10:05:08.583Z,10.70
2018-06-11T10:06:08.537Z,14.00
2018-06-11T10:07:08.488Z,9.00
2018-06-11T10:08:08.441Z,9.70
2018-06-11T10:09:08.432Z,12.50
2018-06-11T10:10:08.347Z,9.70
2018-06-11T10:11:08.299Z,10.70
2018-06-11T10:12:08.252Z,9.30
2018-06-11T10:13:08.204Z,9.70
2018-06-11T10:14:08.159Z,8.70
2018-06-11T10:15:08.115Z,10.20
2018-06-11T10:16:08.062Z,10.60
2018-06-11T10:17:08.020Z,10.60
2018-06-11T10:18:07.969Z,7.20
2018-06-11T10:19:07.950Z,10.60
2018-06-11T10:20:07.875Z,12.20
2018-06-11T10:21:07.827Z,10.20
2018-06-11T10:22:07.780Z,8.90
2018-06-11T10:23:07.734Z,6.80
2018-06-11T10:24:07.685Z,8.80
2018-06-11T10:25:07.638Z,8.80
2018-06-11T10:26:07.589Z,9.80
2018-06-11T10:27:07.540Z,8.40
2018-06-11T10:28:07.498Z,8.50
2018-06-11T10:29:07.446Z,7.60
2018-06-11T10:30:07.402Z,8.40
2018-06-11T10:31:07.351Z,9.50
2018-06-11T10:32:07.307Z,10.20
2018-06-11T10:33:07.255Z,7.30
2018-06-11T10:34:07.205Z,10.90
2018-06-11T10:35:07.159Z,11.30
2018-06-11T10:36:07.108Z,10.30
2018-06-11T10:37:07.061Z,10.60
2018-06-11T10:38:07.013Z,12.30
2018-06-11T10:39:06.972Z,8.60
2018-06-11T10:40:06.918Z,8.40
2018-06-11T10:41:06.869Z,10.10
2018-06-11T10:42:06.826Z,10.90
2018-06-11T10:43:06.773Z,12.00
2018-06-11T10:44:06.724Z,10.50
2018-06-11T10:45:06.676Z,10.30
2018-06-11T10:46:06.628Z,10.40
2018-06-11T10:47:06.581Z,8.80
2018-06-11T10:48:06.533Z,9.40
2018-06-11T10:49:06.485Z,7.70
2018-06-11T10:50:06.437Z,10.60
2018-06-11T10:51:06.390Z,8.10
2018-06-11T10:52:06.338Z,8.70
2018-06-11T10:53:06.294Z,7.10
2018-06-11T10:54:06.247Z,10.10
2018-06-11T10:55:06.199Z,8.80
2018-06-11T10:56:06.156Z,7.60
2018-06-11T10:57:06.102Z,10.00
2018-06-11T10:58:06.074Z,8.90
2018-06-11T10:59:06.009Z,9.30
2018-06-11T11:00:05.960Z,9.20
2018-06-11T11:01:05.912Z,7.90
2018-06-11T11:02:05.863Z,10.50
2018-06-11T11:03:05.816Z,8.80
2018-06-11T11:04:05.769Z,8.30
2018-06-11T11:05:05.720Z,10.90
2018-06-11T11:06:05.673Z,10.30
2018-06-11T11:07:05.625Z,6.50
2018-06-11T11:08:05.578Z,10.40
2018-06-11T11:09:05.527Z,11.80
2018-06-11T11:10:05.480Z,11.50
2018-06-11T11:11:05.462Z,10.80
2018-06-11T11:12:05.384Z,14.90
2018-06-11T11:13:05.347Z,11.00
2018-06-11T11:14:05.286Z,10.90
2018-06-11T11:15:05.239Z,12.10
2018-06-11T11:16:05.189Z,13.80
2018-06-11T11:17:05.140Z,10.30
2018-06-11T11:18:05.090Z,11.30
2018-06-11T11:19:05.042Z,8.60
2018-06-11T11:20:04.992Z,11.70
2018-06-11T11:21:04.941Z,13.60
2018-06-11T11:22:04.892Z,15.50
2018-06-11T11:23:04.840Z,10.80
2018-06-11T11:24:04.790Z,9.70
2018-06-11T11:25:04.740Z,11.30
2018-06-11T11:26:04.692Z,10.60
2018-06-11T11:27:04.638Z,13.40
2018-06-11T11:28:04.589Z,14.00
2018-06-11T11:29:04.537Z,13.40
2018-06-11T11:30:04.484Z,11.90
2018-06-11T11:31:04.434Z,14.50
2018-06-11T11:32:04.384Z,15.60
2018-06-11T11:33:04.334Z,12.50
2018-06-11T11:34:04.284Z,14.10
2018-06-11T11:35:04.229Z,14.30
2018-06-11T11:36:04.180Z,24.60
2018-06-11T11:37:04.125Z,10.90
2018-06-11T11:38:04.075Z,12.50
2018-06-11T11:39:04.036Z,15.40
2018-06-11T11:40:04.001Z,12.20
2018-06-11T11:41:03.920Z,14.10
2018-06-11T11:42:03.864Z,12.10
2018-06-11T11:43:03.820Z,16.10
2018-06-11T11:44:03.763Z,15.10
2018-06-11T11:45:03.709Z,11.20
2018-06-11T11:46:03.665Z,13.20
2018-06-11T11:47:03.608Z,13.30
2018-06-11T11:48:03.554Z,14.70
2018-06-11T11:49:03.500Z,22.60
2018-06-11T11:50:03.448Z,12.80
2018-06-11T11:51:03.449Z,13.60
2018-06-11T11:52:03.346Z,18.50
2018-06-11T11:53:03.289Z,15.10
2018-06-11T11:54:03.242Z,13.10
2018-06-11T11:55:03.183Z,14.20
2018-06-11T11:56:03.139Z,13.10
2018-06-11T11:57:03.078Z,12.80
2018-06-11T11:58:03.027Z,11.60
2018-06-11T11:59:02.974Z,15.40
2018-06-11T12:00:02.921Z,13.40
2018-06-11T12:01:02.866Z,14.90
2018-06-11T12:02:02.817Z,19.10
2018-06-11T12:03:02.764Z,14.00
2018-06-11T12:04:02.709Z,16.40
2018-06-11T12:05:02.656Z,13.10
2018-06-11T12:06:02.604Z,14.90
2018-06-11T12:07:02.551Z,14.20
2018-06-11T12:08:02.502Z,14.70
2018-06-11T12:09:02.444Z,10.80
2018-06-11T12:10:02.394Z,14.30
2018-06-11T12:11:02.339Z,11.60
2018-06-11T12:12:02.286Z,13.30
2018-06-11T12:13:02.231Z,13.90
2018-06-11T12:14:02.180Z,12.00
2018-06-11T12:15:02.127Z,12.60
2018-06-11T12:16:02.074Z,11.80
2018-06-11T12:17:02.021Z,14.70
2018-06-11T12:18:01.968Z,9.40
2018-06-11T12:19:01.965Z,13.50
2018-06-11T12:20:01.893Z,13.10
2018-06-11T12:21:01.809Z,13.70
2018-06-11T12:22:01.755Z,15.00
2018-06-11T12:23:01.703Z,13.40
2018-06-11T12:24:01.649Z,11.00
2018-06-11T12:25:01.597Z,11.90
2018-06-11T12:26:01.543Z,9.90
2018-06-11T12:27:01.483Z,9.60
2018-06-11T12:28:01.436Z,13.00
2018-06-11T12:29:01.382Z,16.10
2018-06-11T12:30:01.332Z,12.00
2018-06-11T12:31:01.280Z,15.70
2018-06-11T12:32:01.222Z,10.60
2018-06-11T12:33:01.174Z,12.20
2018-06-11T12:34:01.120Z,10.60
2018-06-11T12:35:01.062Z,13.60
2018-06-11T12:36:01.010Z,13.90
2018-06-11T12:37:00.955Z,11.80
2018-06-11T12:38:00.901Z,14.30
2018-06-11T12:39:00.848Z,10.70
2018-06-11T12:40:00.797Z,23.50
2018-06-11T12:41:00.741Z,12.80
2018-06-11T12:42:00.689Z,15.50
2018-06-11T12:43:00.638Z,16.70
2018-06-11T12:44:00.581Z,12.90
2018-06-11T12:45:00.532Z,10.70
2018-06-11T12:46:00.475Z,13.70
2018-06-11T12:47:00.422Z,14.50
2018-06-11T12:48:00.369Z,9.40
2018-06-11T12:49:00.317Z,13.70
2018-06-11T12:50:00.261Z,16.80
2018-06-11T12:51:00.209Z,7.50
2018-06-11T12:52:00.155Z,11.20
2018-06-11T12:53:00.105Z,15.70
2018-06-11T12:54:00.048Z,31.60
2018-06-11T12:54:59.997Z,17.30
2018-06-11T12:55:59.945Z,14.70
2018-06-11T12:56:59.887Z,15.50